createdAt,value
2022-07-30T00:30:38.431Z,0
2022-07-30T00:31:18.906Z,0
2022-07-30T00:31:59.353Z,0
2022-07-30T00:32:39.809Z,0
2022-07-30T00:33:20.348Z,0
2022-07-30T00:34:00.849Z,0
2022-07-30T00:34:41.364Z,0
2022-07-30T00:35:21.917Z,0
2022-07-30T00:36:02.370Z,0
2022-07-30T00:43:27.776Z,0
2022-07-30T00:44:08.231Z,0
2022-07-30T00:44:48.734Z,0
2022-07-30T00:45:29.322Z,0
2022-07-30T00:46:09.789Z,0
2022-07-30T00:46:50.244Z,0
2022-07-30T00:47:30.701Z,0
2022-07-30T00:48:11.205Z,0
2022-07-30T00:48:51.822Z,0
2022-07-30T00:49:32.189Z,0
2022-07-30T00:50:12.623Z,0
2022-07-30T00:56:58.142Z,0
2022-07-30T00:57:39.283Z,0
2022-07-30T00:58:18.605Z,0
2022-07-30T00:58:59.129Z,0
2022-07-30T00:59:39.679Z,0
2022-07-30T01:00:20.147Z,0
2022-07-30T01:01:00.711Z,0
2022-07-30T01:01:41.062Z,0
2022-07-30T01:02:21.607Z,0
2022-07-30T01:03:42.452Z,0
2022-07-30T01:11:07.864Z,0
2022-07-30T01:11:48.312Z,0
2022-07-30T01:12:28.783Z,0
2022-07-30T01:14:41.899Z,0
2022-07-30T01:15:22.160Z,0
2022-07-30T01:16:02.803Z,0
2022-07-30T01:16:43.374Z,0
2022-07-30T01:17:23.779Z,0
2022-07-30T01:18:04.269Z,0
2022-07-30T01:18:44.727Z,0
2022-07-30T01:19:25.211Z,0
2022-07-30T01:20:05.708Z,0
2022-07-30T01:20:46.191Z,0
2022-07-30T01:28:11.605Z,0
2022-07-30T01:28:52.102Z,0
2022-07-30T01:29:32.636Z,0
2022-07-30T01:30:13.059Z,0
2022-07-30T01:30:53.578Z,0
2022-07-30T01:31:34.187Z,0
2022-07-30T01:32:14.616Z,0
2022-07-30T01:32:55.137Z,0
2022-07-30T01:34:16.092Z,0
2022-07-30T01:34:56.573Z,0
2022-07-30T01:41:41.628Z,0
2022-07-30T01:42:22.164Z,0
2022-07-30T01:43:02.640Z,0
2022-07-30T01:43:43.221Z,0
2022-07-30T01:46:57.121Z,0
2022-07-30T01:47:37.651Z,0
2022-07-30T01:48:18.132Z,0
2022-07-30T01:48:58.621Z,0
2022-07-30T01:49:39.090Z,0
2022-07-30T01:50:19.582Z,0
2022-07-30T01:51:00.088Z,0
2022-07-30T01:51:40.622Z,0
2022-07-30T01:52:21.050Z,0
2022-07-30T01:53:01.543Z,0
2022-07-30T02:00:26.841Z,0
2022-07-30T02:01:07.519Z,0
2022-07-30T02:01:47.769Z,0
2022-07-30T02:02:28.326Z,0
2022-07-30T02:03:08.914Z,0
2022-07-30T02:03:49.310Z,0
2022-07-30T02:04:29.753Z,0
2022-07-30T02:05:10.265Z,0
2022-07-30T02:05:50.710Z,0
2022-07-30T02:06:31.269Z,0
2022-07-30T02:07:11.679Z,0
2022-07-30T02:13:56.629Z,0
2022-07-30T02:14:38.071Z,0
2022-07-30T02:15:18.556Z,0
2022-07-30T02:15:59.111Z,0
2022-07-30T02:16:39.559Z,0
2022-07-30T02:17:19.973Z,0
2022-07-30T02:18:00.437Z,0
2022-07-30T02:18:40.975Z,0
2022-07-30T02:19:21.406Z,0
2022-07-30T02:26:46.894Z,0
2022-07-30T02:27:27.410Z,0
2022-07-30T02:28:07.813Z,0
2022-07-30T02:28:48.387Z,0
2022-07-30T02:29:28.899Z,0
2022-07-30T02:30:09.361Z,0
2022-07-30T02:30:49.895Z,0
2022-07-30T02:31:30.371Z,0
2022-07-30T02:32:10.837Z,0
2022-07-30T02:32:51.307Z,0
2022-07-30T02:33:31.853Z,0
2022-07-30T02:40:16.762Z,0
2022-07-30T02:40:57.226Z,0
2022-07-30T02:41:37.738Z,0
2022-07-30T02:42:18.179Z,0
2022-07-30T02:42:58.673Z,0
2022-07-30T02:43:39.200Z,0
2022-07-30T02:44:19.759Z,0
2022-07-30T02:45:00.248Z,0
2022-07-30T02:45:40.770Z,0
2022-07-30T02:46:21.217Z,0
2022-07-30T02:47:04.536Z,0
2022-07-30T02:53:46.570Z,0
2022-07-30T02:54:26.984Z,0
2022-07-30T02:55:07.533Z,0
2022-07-30T02:55:48.007Z,0
2022-07-30T02:56:28.498Z,0
2022-07-30T02:57:09.023Z,0
2022-07-30T02:57:49.553Z,0
2022-07-30T02:58:30.042Z,0
2022-07-30T02:59:10.511Z,0
2022-07-30T02:59:51.012Z,0
2022-07-30T03:00:31.664Z,0
2022-07-30T03:07:16.679Z,0
2022-07-30T03:07:57.189Z,0
2022-07-30T03:08:37.665Z,0
2022-07-30T03:09:18.187Z,0
2022-07-30T03:09:58.659Z,0
2022-07-30T03:11:19.724Z,0
2022-07-30T03:12:00.257Z,0
2022-07-30T03:12:40.757Z,0
2022-07-30T03:13:21.278Z,0
2022-07-30T03:20:06.928Z,0
2022-07-30T03:20:47.343Z,0
2022-07-30T03:21:27.870Z,0
2022-07-30T03:22:08.383Z,0
2022-07-30T03:22:48.902Z,0
2022-07-30T03:23:29.323Z,0
2022-07-30T03:24:09.783Z,0
2022-07-30T03:24:50.301Z,0
2022-07-30T03:25:30.849Z,0
2022-07-30T03:26:11.232Z,0
2022-07-30T03:33:38.522Z,4
2022-07-30T03:34:17.210Z,4
2022-07-30T03:34:57.694Z,4
2022-07-30T03:35:38.141Z,4
2022-07-30T03:36:18.653Z,8
2022-07-30T03:36:59.308Z,4
2022-07-30T03:37:39.574Z,8
2022-07-30T03:38:20.034Z,8
2022-07-30T03:39:00.553Z,8
2022-07-30T03:39:41.080Z,8
2022-07-30T03:40:21.599Z,12
2022-07-30T03:47:46.940Z,24
2022-07-30T03:48:27.393Z,28
2022-07-30T03:49:07.981Z,28
2022-07-30T03:49:48.365Z,28
2022-07-30T03:50:28.909Z,32
2022-07-30T03:51:09.417Z,32
2022-07-30T03:51:49.917Z,36
2022-07-30T03:52:30.384Z,40
2022-07-30T03:53:10.926Z,40
2022-07-30T03:53:51.384Z,44
2022-07-30T04:01:16.911Z,72
2022-07-30T04:01:57.420Z,80
2022-07-30T04:02:37.820Z,80
2022-07-30T04:03:18.336Z,84
2022-07-30T04:03:58.828Z,88
2022-07-30T04:04:39.268Z,92
2022-07-30T04:05:19.761Z,96
2022-07-30T04:06:00.249Z,100
2022-07-30T04:06:40.733Z,100
2022-07-30T04:07:21.213Z,108
2022-07-30T04:08:01.700Z,108
2022-07-30T04:15:05.384Z,160
2022-07-30T04:16:04.689Z,164
2022-07-30T04:16:38.611Z,176
2022-07-30T04:17:05.900Z,188
2022-07-30T04:17:46.097Z,192
2022-07-30T04:18:26.644Z,204
2022-07-30T04:19:07.141Z,216
2022-07-30T04:19:47.644Z,224
2022-07-30T04:20:28.177Z,232
2022-07-30T04:21:16.155Z,244
2022-07-30T04:27:58.447Z,328
2022-07-30T04:28:34.232Z,336
2022-07-30T04:29:17.348Z,344
2022-07-30T04:29:55.209Z,356
2022-07-30T04:30:35.700Z,372
2022-07-30T04:31:16.264Z,380
2022-07-30T04:31:56.699Z,388
2022-07-30T04:32:37.154Z,400
2022-07-30T04:33:17.737Z,412
2022-07-30T04:33:58.916Z,428
2022-07-30T04:34:38.630Z,436
2022-07-30T04:42:03.991Z,544
2022-07-30T04:42:44.569Z,564
2022-07-30T04:44:57.821Z,636
2022-07-30T04:45:38.097Z,696
2022-07-30T04:46:18.627Z,776
2022-07-30T04:46:59.489Z,740
2022-07-30T04:47:39.700Z,708
2022-07-30T04:48:20.122Z,728
2022-07-30T04:49:00.622Z,768
2022-07-30T04:49:41.113Z,920
2022-07-30T04:50:21.625Z,1100
2022-07-30T04:51:02.107Z,1224
2022-07-30T04:58:27.453Z,1416
2022-07-30T04:59:07.925Z,1412
2022-07-30T04:59:48.358Z,1292
2022-07-30T05:00:32.093Z,1320
2022-07-30T05:01:09.370Z,1368
2022-07-30T05:01:49.807Z,1448
2022-07-30T05:02:30.207Z,1548
2022-07-30T05:03:10.797Z,1624
2022-07-30T05:03:51.150Z,2216
2022-07-30T05:04:31.628Z,3540
2022-07-30T05:05:12.203Z,3852
2022-07-30T05:12:37.525Z,4864
2022-07-30T05:13:17.945Z,5028
2022-07-30T05:13:58.457Z,5276
2022-07-30T05:14:38.964Z,5712
2022-07-30T05:15:19.480Z,5580
2022-07-30T05:16:00.025Z,5736
2022-07-30T05:19:14.538Z,6616
2022-07-30T05:19:54.807Z,7388
2022-07-30T05:20:35.376Z,7312
2022-07-30T05:21:15.776Z,7636
2022-07-30T05:21:56.262Z,8108
2022-07-30T05:22:36.768Z,8268
2022-07-30T05:23:57.788Z,8320
2022-07-30T05:24:38.242Z,8724
2022-07-30T05:25:18.692Z,8876
2022-07-30T05:32:03.965Z,11072
2022-07-30T05:32:44.474Z,11424
2022-07-30T05:33:37.271Z,12544
2022-07-30T05:34:05.578Z,12512
2022-07-30T05:34:48.910Z,12864
2022-07-30T05:35:26.570Z,12576
2022-07-30T05:36:47.553Z,13344
2022-07-30T05:37:28.037Z,13312
2022-07-30T05:38:08.561Z,13984
2022-07-30T05:43:34.199Z,16384
2022-07-30T05:44:15.108Z,15840
2022-07-30T05:44:55.934Z,16032
2022-07-30T05:45:36.374Z,16768
2022-07-30T05:46:16.889Z,17216
2022-07-30T05:46:57.592Z,17600
2022-07-30T05:47:37.883Z,18144
2022-07-30T05:48:18.379Z,17568
2022-07-30T05:48:58.879Z,18144
2022-07-30T06:37:54.071Z,26624
2022-07-30T06:38:17.300Z,27328
2022-07-30T06:38:57.820Z,27424
2022-07-30T06:39:55.889Z,29312
2022-07-30T06:40:18.800Z,29088
2022-07-30T06:41:02.700Z,29728
2022-07-30T06:41:39.756Z,29536
2022-07-30T06:42:20.231Z,27136
2022-07-30T06:43:00.749Z,28832
2022-07-30T06:43:41.584Z,29760
2022-07-30T06:49:46.658Z,23168
2022-07-30T06:50:27.280Z,25824
2022-07-30T06:51:07.673Z,20672
2022-07-30T06:51:48.181Z,21696
2022-07-30T06:52:28.614Z,20032
2022-07-30T06:53:09.091Z,17280
2022-07-30T06:59:55.969Z,10548
2022-07-30T07:00:35.069Z,20640
2022-07-30T07:01:15.558Z,20064
2022-07-30T07:01:56.068Z,7252
2022-07-30T07:02:36.518Z,20096
2022-07-30T07:03:17.030Z,10064
2022-07-30T07:03:57.567Z,5788
2022-07-30T07:11:24.874Z,20608
2022-07-30T07:12:05.294Z,12692
2022-07-30T07:12:45.787Z,6496
2022-07-30T07:13:26.229Z,15744
2022-07-30T07:14:06.716Z,4912
2022-07-30T07:15:32.079Z,4848
2022-07-30T07:16:08.182Z,12716
2022-07-30T07:16:49.070Z,4892
2022-07-30T07:17:29.181Z,4736
2022-07-30T07:18:09.664Z,6668
2022-07-30T07:25:35.388Z,13776
2022-07-30T07:26:15.911Z,11708
2022-07-30T07:26:56.399Z,7896
2022-07-30T07:27:36.867Z,6488
2022-07-30T07:28:17.791Z,7736
2022-07-30T07:29:00.205Z,11148
2022-07-30T07:29:38.749Z,8428
2022-07-30T07:30:19.246Z,5316
2022-07-30T07:30:59.775Z,5560
2022-07-30T07:37:44.867Z,4280
2022-07-30T07:38:25.350Z,4492
2022-07-30T07:39:05.846Z,4692
2022-07-30T07:39:46.358Z,4172
2022-07-30T07:40:26.962Z,4108
2022-07-30T07:41:07.395Z,5640
2022-07-30T07:41:48.614Z,5632
2022-07-30T07:42:28.359Z,5048
2022-07-30T07:43:08.874Z,4388
2022-07-30T07:43:49.356Z,5824
2022-07-30T07:44:29.813Z,4836
2022-07-30T07:51:14.718Z,5696
2022-07-30T07:51:55.244Z,5692
2022-07-30T07:52:35.677Z,5504
2022-07-30T07:56:18.933Z,4484
2022-07-30T07:56:59.488Z,5268
2022-07-30T07:57:39.765Z,5584
2022-07-30T07:58:20.833Z,5492
2022-07-30T07:59:00.695Z,4868
2022-07-30T07:59:41.230Z,4936
2022-07-30T08:00:21.689Z,4452
2022-07-30T08:01:02.288Z,4688
2022-07-30T08:01:42.691Z,4672
2022-07-30T08:02:23.244Z,4640
2022-07-30T08:03:03.861Z,4768
2022-07-30T08:08:28.863Z,4256
2022-07-30T08:09:09.008Z,4224
2022-07-30T08:09:49.517Z,4148
2022-07-30T08:10:29.959Z,4216
2022-07-30T08:11:10.444Z,4188
2022-07-30T08:11:50.922Z,4596
2022-07-30T08:12:31.437Z,4616
2022-07-30T08:13:48.175Z,4556
2022-07-30T08:13:53.187Z,4500
2022-07-30T08:14:32.840Z,4536
2022-07-30T08:15:13.316Z,4868
2022-07-30T08:15:53.871Z,5132
2022-07-30T08:22:38.665Z,3696
2022-07-30T08:23:19.136Z,3420
2022-07-30T08:23:59.665Z,3584
2022-07-30T08:24:40.184Z,3952
2022-07-30T08:25:21.894Z,4236
2022-07-30T08:26:01.104Z,4360
2022-07-30T08:26:41.637Z,4260
2022-07-30T08:27:22.061Z,3988
2022-07-30T08:28:02.545Z,3496
2022-07-30T08:28:43.019Z,3444
2022-07-30T08:29:23.598Z,3716
2022-07-30T08:36:48.905Z,4376
2022-07-30T08:37:29.425Z,3972
2022-07-30T08:38:09.878Z,3912
2022-07-30T08:38:50.321Z,3612
2022-07-30T08:39:30.787Z,3304
2022-07-30T08:40:11.309Z,2960
2022-07-30T08:40:51.748Z,2968
2022-07-30T08:41:32.251Z,3272
2022-07-30T08:42:12.760Z,3576
2022-07-30T08:42:53.235Z,4056
2022-07-30T08:43:33.685Z,3784
2022-07-30T08:50:18.704Z,3540
2022-07-30T08:50:59.088Z,3184
2022-07-30T08:51:39.606Z,2972
2022-07-30T08:52:20.091Z,2548
2022-07-30T08:53:00.569Z,2304
2022-07-30T08:53:41.031Z,2364
2022-07-30T08:54:21.523Z,2516
2022-07-30T08:55:02.027Z,2556
2022-07-30T08:55:42.532Z,2672
2022-07-30T08:57:04.654Z,3260
2022-07-30T09:03:48.503Z,3152
2022-07-30T09:04:28.956Z,3124
2022-07-30T09:05:09.488Z,3140
2022-07-30T09:05:50.009Z,3240
2022-07-30T09:06:30.702Z,3520
2022-07-30T09:07:12.045Z,3564
2022-07-30T09:07:52.422Z,3344
2022-07-30T09:08:32.928Z,2924
2022-07-30T09:09:13.624Z,2976
2022-07-30T09:15:58.727Z,1892
2022-07-30T09:16:39.187Z,1792
2022-07-30T09:17:19.745Z,1784
2022-07-30T09:18:00.194Z,2280
2022-07-30T09:18:40.663Z,2332
2022-07-30T09:19:21.151Z,2312
2022-07-30T09:20:01.613Z,2280
2022-07-30T09:20:42.073Z,2240
2022-07-30T09:21:22.556Z,2288
2022-07-30T09:22:03.078Z,2348
2022-07-30T09:22:43.587Z,2456
2022-07-30T09:28:11.157Z,3272
2022-07-30T09:28:48.909Z,3260
2022-07-30T09:29:29.425Z,3116
2022-07-30T09:30:09.863Z,2884
2022-07-30T09:30:51.098Z,2644
2022-07-30T09:31:31.856Z,2460
2022-07-30T09:32:12.416Z,2384
2022-07-30T09:32:53.387Z,2264
2022-07-30T09:40:19.429Z,2056
2022-07-30T09:41:04.770Z,2032
2022-07-30T09:41:40.567Z,2108
2022-07-30T09:42:21.018Z,2136
2022-07-30T09:43:01.539Z,2096
2022-07-30T09:43:41.986Z,2044
2022-07-30T09:44:22.548Z,1996
2022-07-30T09:45:03.008Z,1944
2022-07-30T09:45:43.498Z,1948
2022-07-30T09:52:28.965Z,2032
2022-07-30T09:53:09.284Z,1900
2022-07-30T09:53:49.475Z,1904
2022-07-30T09:54:29.960Z,1872
2022-07-30T09:55:10.428Z,1820
2022-07-30T09:55:50.944Z,1788
2022-07-30T09:56:31.382Z,1868
2022-07-30T09:57:15.899Z,1968
2022-07-30T09:57:55.134Z,2000
2022-07-30T09:58:32.844Z,2148
2022-07-30T09:59:18.391Z,2248
2022-07-30T10:06:41.878Z,1700
2022-07-30T10:07:25.086Z,1676
2022-07-30T10:08:04.476Z,1684
2022-07-30T10:08:42.052Z,1668
2022-07-30T10:09:22.526Z,1632
2022-07-30T10:10:03.036Z,1604
2022-07-30T10:10:47.001Z,1612
2022-07-30T10:17:28.630Z,1588
2022-07-30T10:18:09.140Z,1596
2022-07-30T10:18:49.612Z,1600
2022-07-30T10:19:39.646Z,1604
2022-07-30T10:20:10.594Z,1604
2022-07-30T10:20:51.055Z,1584
2022-07-30T10:21:32.515Z,1580
2022-07-30T10:22:12.276Z,1580
2022-07-30T10:22:52.725Z,1572
2022-07-30T10:23:33.249Z,1552
2022-07-30T10:24:13.743Z,1504
2022-07-30T10:30:59.870Z,1432
2022-07-30T10:31:47.846Z,1440
2022-07-30T10:32:19.770Z,1444
2022-07-30T10:33:00.338Z,1444
2022-07-30T10:33:40.746Z,1444
2022-07-30T10:34:23.477Z,1504
2022-07-30T10:35:01.763Z,1444
2022-07-30T10:35:42.276Z,1452
2022-07-30T10:36:23.890Z,1452
2022-07-30T10:37:04.385Z,1444
2022-07-30T10:37:43.728Z,1424
2022-07-30T10:44:28.777Z,1404
2022-07-30T10:45:09.255Z,1388
2022-07-30T10:45:49.765Z,1372
2022-07-30T10:46:30.202Z,1364
2022-07-30T10:47:10.926Z,1372
2022-07-30T10:50:41.272Z,1332
2022-07-30T10:51:25.381Z,1328
2022-07-30T10:52:02.222Z,1324
2022-07-30T10:52:42.735Z,1320
2022-07-30T10:56:45.618Z,1304
2022-07-30T10:57:32.018Z,1292
2022-07-30T10:58:06.667Z,1292
2022-07-30T10:58:47.467Z,1284
2022-07-30T10:59:29.075Z,1280
2022-07-30T11:00:08.191Z,1288
2022-07-30T11:00:48.646Z,1280
2022-07-30T11:01:30.394Z,1272
2022-07-30T11:02:10.216Z,1276
2022-07-30T11:02:50.754Z,1276
2022-07-30T11:09:35.614Z,1264
2022-07-30T11:10:16.087Z,1264
2022-07-30T11:10:56.588Z,1268
2022-07-30T11:11:59.719Z,1272
2022-07-30T11:12:18.005Z,1276
2022-07-30T11:12:58.726Z,1284
2022-07-30T11:13:39.510Z,1284
2022-07-30T11:14:20.428Z,1280
2022-07-30T11:15:40.956Z,1272
2022-07-30T11:22:25.799Z,1320
2022-07-30T11:23:06.318Z,1320
2022-07-30T11:23:46.786Z,1312
2022-07-30T11:24:27.249Z,1304
2022-07-30T11:25:12.611Z,1292
2022-07-30T11:25:50.918Z,1296
2022-07-30T11:26:28.734Z,1300
2022-07-30T11:27:09.220Z,1308
2022-07-30T11:27:49.777Z,1304
2022-07-30T11:28:30.243Z,1308
2022-07-30T11:29:10.750Z,1312
2022-07-30T11:36:35.987Z,1176
2022-07-30T11:37:17.811Z,1236
2022-07-30T11:37:56.937Z,1252
2022-07-30T11:38:37.479Z,1260
2022-07-30T11:39:17.899Z,1268
2022-07-30T11:39:58.373Z,1276
2022-07-30T11:40:38.862Z,1288
2022-07-30T11:43:52.544Z,1312
2022-07-30T11:44:33.045Z,1312
2022-07-30T11:45:13.563Z,1308
2022-07-30T11:45:54.021Z,1312
2022-07-30T11:46:34.535Z,1316
2022-07-30T11:47:14.969Z,1316
2022-07-30T11:47:55.476Z,1328
2022-07-30T11:48:35.965Z,1328
2022-07-30T11:49:16.528Z,1320
2022-07-30T11:49:57.002Z,1328
2022-07-30T11:50:37.458Z,1324
2022-07-30T12:33:57.609Z,1604
2022-07-30T12:34:37.850Z,1604
2022-07-30T12:35:18.984Z,1596
2022-07-30T12:36:00.696Z,1588
2022-07-30T12:36:42.043Z,1596
2022-07-30T12:37:27.100Z,1608
2022-07-30T12:38:10.817Z,1596
2022-07-30T12:39:34.370Z,1596
2022-07-30T12:45:12.172Z,1496
2022-07-30T12:45:54.468Z,1480
2022-07-30T12:46:34.010Z,1464
2022-07-30T12:47:15.398Z,1444
2022-07-30T12:47:55.879Z,1464
2022-07-30T12:48:36.861Z,1476
2022-07-30T12:52:41.234Z,1456
2022-07-30T12:53:21.965Z,1456
2022-07-30T12:54:02.495Z,1476
2022-07-30T12:54:42.961Z,1480
2022-07-30T12:55:23.469Z,1468
2022-07-30T12:56:03.965Z,1468
2022-07-30T12:56:44.503Z,1464
2022-07-30T12:57:24.976Z,1444
2022-07-30T12:58:08.263Z,1440
2022-07-30T12:58:46.144Z,1436
2022-07-30T13:05:38.862Z,1400
2022-07-30T13:06:19.934Z,1416
2022-07-30T13:07:01.432Z,1376
2022-07-30T13:07:41.677Z,1416
2022-07-30T13:09:06.037Z,1416
2022-07-30T13:12:28.944Z,1480
2022-07-30T13:13:09.834Z,1504
2022-07-30T13:13:50.292Z,1564
2022-07-30T13:14:30.867Z,1592
2022-07-30T13:15:16.182Z,1628
2022-07-30T13:19:58.761Z,1852
2022-07-30T13:20:39.227Z,1908
2022-07-30T13:21:22.392Z,1960
2022-07-30T13:22:08.122Z,2052
2022-07-30T13:23:29.027Z,1804
2022-07-30T13:24:09.606Z,1968
2022-07-30T13:24:50.130Z,1824
2022-07-30T13:25:38.634Z,1928
2022-07-30T13:26:11.763Z,2044
2022-07-30T13:26:52.170Z,2056
2022-07-30T13:27:32.665Z,2056
2022-07-30T13:28:13.197Z,2068
2022-07-30T13:28:54.671Z,1476
2022-07-30T13:33:39.415Z,952
2022-07-30T13:34:20.676Z,1032
2022-07-30T13:35:01.674Z,1028
2022-07-30T13:35:41.551Z,1112
2022-07-30T13:36:22.051Z,1104
2022-07-30T13:37:48.861Z,1228
2022-07-30T13:40:46.709Z,1520
2022-07-30T13:41:27.852Z,1548
2022-07-30T13:42:08.850Z,1588
2022-07-30T13:42:50.079Z,1632
2022-07-30T13:43:33.540Z,1676
2022-07-30T13:45:36.738Z,1796
2022-07-30T13:46:20.421Z,1832
2022-07-30T13:47:46.761Z,1812
2022-07-30T13:48:34.865Z,1792
2022-07-30T13:49:15.963Z,1796
2022-07-30T13:52:45.699Z,1800
2022-07-30T13:53:27.380Z,1788
2022-07-30T13:54:07.741Z,1796
2022-07-30T13:54:48.316Z,1776
2022-07-30T13:59:03.343Z,1800
2022-07-30T14:04:44.493Z,1528
2022-07-30T14:05:27.135Z,1524
2022-07-30T14:06:10.287Z,1508
2022-07-30T14:06:46.750Z,1480
2022-07-30T14:10:17.446Z,1448
2022-07-30T14:10:57.991Z,1404
2022-07-30T14:11:38.547Z,1396
2022-07-30T14:12:19.053Z,1384
2022-07-30T14:12:59.456Z,1368
2022-07-30T14:13:39.952Z,1372
2022-07-30T14:14:20.431Z,1360
2022-07-30T14:15:00.951Z,1324
2022-07-30T14:15:41.423Z,1304
2022-07-30T14:20:28.955Z,1180
2022-07-30T14:21:06.889Z,1172
2022-07-30T14:21:47.492Z,1160
2022-07-30T14:22:27.791Z,1156
2022-07-30T14:23:08.345Z,1140
2022-07-30T14:23:49.006Z,1140
2022-07-30T14:24:29.402Z,1136
2022-07-30T14:25:10.344Z,1136
2022-07-30T14:25:50.806Z,1104
2022-07-30T14:26:36.263Z,1084
2022-07-30T14:29:16.397Z,1084
2022-07-30T14:29:56.954Z,1076
2022-07-30T14:30:38.587Z,1072
2022-07-30T14:31:19.130Z,1072
2022-07-30T14:31:59.652Z,1076
2022-07-30T14:32:40.176Z,1080
2022-07-30T14:36:46.645Z,1068
2022-07-30T14:37:27.356Z,1076
2022-07-30T14:38:07.855Z,1072
2022-07-30T14:38:48.364Z,1064
2022-07-30T14:39:28.873Z,1032
2022-07-30T14:40:09.398Z,1068
2022-07-30T14:40:49.849Z,1064
2022-07-30T14:41:30.413Z,1020
2022-07-30T14:42:10.847Z,1032
2022-07-30T14:42:51.753Z,1064
2022-07-30T14:48:16.785Z,1036
2022-07-30T14:48:57.439Z,1028
2022-07-30T14:49:37.958Z,1020
2022-07-30T14:50:19.127Z,1012
2022-07-30T14:51:20.707Z,988
2022-07-30T14:51:42.057Z,988
2022-07-30T14:55:46.874Z,956
2022-07-30T14:56:27.410Z,952
2022-07-30T14:57:07.978Z,948
2022-07-30T14:57:48.484Z,944
2022-07-30T14:58:29.119Z,756
2022-07-30T14:59:09.814Z,720
2022-07-30T14:59:51.033Z,728
2022-07-30T15:00:34.806Z,820
2022-07-30T15:01:19.147Z,964
2022-07-30T15:02:04.603Z,984
2022-07-30T15:03:27.218Z,968
2022-07-30T15:04:07.637Z,960
2022-07-30T15:04:48.252Z,964
2022-07-30T15:05:28.780Z,944
2022-07-30T15:06:09.271Z,912
2022-07-30T15:06:49.772Z,916
2022-07-30T15:07:30.291Z,960
2022-07-30T15:08:10.746Z,952
2022-07-30T15:14:16.446Z,952
2022-07-30T15:14:56.719Z,948
2022-07-30T15:15:38.253Z,960
2022-07-30T15:16:17.456Z,964
2022-07-30T15:17:03.821Z,972
2022-07-30T15:17:39.074Z,964
2022-07-30T15:18:19.868Z,944
2022-07-30T15:19:00.383Z,952
2022-07-30T15:19:46.399Z,948
2022-07-30T15:26:27.143Z,924
2022-07-30T15:27:07.647Z,928
2022-07-30T15:27:48.086Z,924
2022-07-30T15:28:28.796Z,924
2022-07-30T15:29:13.256Z,904
2022-07-30T15:29:50.202Z,916
2022-07-30T15:30:31.323Z,924
2022-07-30T15:35:16.936Z,872
2022-07-30T15:35:57.751Z,932
2022-07-30T15:36:38.350Z,936
2022-07-30T15:37:18.811Z,948
2022-07-30T15:37:59.436Z,952
2022-07-30T15:38:40.137Z,944
2022-07-30T15:39:20.912Z,936
2022-07-30T15:43:26.888Z,916
2022-07-30T15:44:07.369Z,924
2022-07-30T15:44:48.924Z,932
2022-07-30T15:45:28.592Z,916
2022-07-30T15:46:09.040Z,924
2022-07-30T15:46:49.614Z,924
2022-07-30T15:51:54.839Z,964
2022-07-30T15:52:34.698Z,960
2022-07-30T15:53:17.613Z,960
2022-07-30T15:53:55.901Z,972
2022-07-30T15:54:36.387Z,976
2022-07-30T15:55:16.924Z,980
2022-07-30T15:55:57.352Z,984
2022-07-30T15:56:37.865Z,992
2022-07-30T15:57:18.338Z,992
2022-07-30T15:57:58.803Z,992
2022-07-30T16:04:04.083Z,992
2022-07-30T16:04:44.604Z,992
2022-07-30T16:05:25.237Z,988
2022-07-30T16:06:05.747Z,992
2022-07-30T16:06:46.863Z,988
2022-07-30T16:07:27.351Z,972
2022-07-30T16:08:07.948Z,928
2022-07-30T16:08:48.418Z,924
2022-07-30T16:09:28.948Z,928
2022-07-30T16:16:14.264Z,832
2022-07-30T16:16:54.810Z,828
2022-07-30T16:17:35.332Z,820
2022-07-30T16:18:15.885Z,816
2022-07-30T16:18:56.345Z,816
2022-07-30T16:19:36.901Z,812
2022-07-30T16:20:17.346Z,808
2022-07-30T16:20:58.297Z,800
2022-07-30T16:21:38.558Z,788
2022-07-30T16:29:04.126Z,688
2022-07-30T16:30:27.303Z,684
2022-07-30T16:31:05.738Z,660
2022-07-30T16:31:46.369Z,648
2022-07-30T16:32:26.879Z,640
2022-07-30T16:33:07.634Z,636
2022-07-30T16:33:48.270Z,640
2022-07-30T16:34:29.203Z,636
2022-07-30T16:40:10.705Z,608
2022-07-30T16:40:52.159Z,608
2022-07-30T16:41:32.603Z,624
2022-07-30T16:42:13.115Z,628
2022-07-30T16:43:34.728Z,632
2022-07-30T16:44:15.159Z,632
2022-07-30T16:44:55.692Z,636
2022-07-30T16:45:36.618Z,644
2022-07-30T16:46:18.855Z,652
2022-07-30T16:46:57.657Z,664
2022-07-30T16:50:30.409Z,724
2022-07-30T16:51:11.229Z,740
2022-07-30T16:51:51.983Z,740
2022-07-30T16:52:32.540Z,748
2022-07-30T16:55:57.206Z,804
2022-07-30T16:56:39.085Z,804
2022-07-30T16:58:00.810Z,828
2022-07-30T16:58:41.442Z,840
2022-07-30T17:03:26.669Z,920
2022-07-30T17:04:06.698Z,920
2022-07-30T17:04:47.226Z,932
2022-07-30T17:05:27.703Z,936
2022-07-30T17:06:08.246Z,932
2022-07-30T17:06:48.702Z,928
2022-07-30T17:07:29.242Z,924
2022-07-30T17:08:09.828Z,916
2022-07-30T17:08:50.369Z,912
2022-07-30T17:09:31.903Z,904
2022-07-30T17:10:11.398Z,896
2022-07-30T17:10:51.804Z,888
2022-07-30T17:17:36.805Z,836
2022-07-30T17:18:17.252Z,836
2022-07-30T17:18:57.851Z,832
2022-07-30T17:19:38.312Z,828
2022-07-30T17:20:19.112Z,824
2022-07-30T17:20:59.588Z,820
2022-07-30T17:21:40.314Z,816
2022-07-30T17:22:22.181Z,816
2022-07-30T17:29:28.219Z,736
2022-07-30T17:30:08.597Z,720
2022-07-30T17:30:49.208Z,720
2022-07-30T17:31:29.842Z,712
2022-07-30T17:32:10.466Z,708
2022-07-30T17:32:51.056Z,704
2022-07-30T17:33:32.383Z,700
2022-07-30T17:34:11.962Z,692
2022-07-30T17:34:52.762Z,676
2022-07-30T17:40:24.826Z,640
2022-07-30T17:40:58.663Z,632
2022-07-30T17:41:55.322Z,616
2022-07-30T17:42:19.887Z,604
2022-07-30T17:43:00.420Z,592
2022-07-30T17:43:40.938Z,580
2022-07-30T17:44:21.422Z,588
2022-07-30T17:45:01.865Z,584
2022-07-30T17:45:42.377Z,584
2022-07-30T17:46:23.083Z,572
2022-07-30T17:52:28.126Z,496
2022-07-30T17:53:08.692Z,492
2022-07-30T17:53:49.183Z,488
2022-07-30T18:34:35.776Z,196
2022-07-30T18:35:18.574Z,192
2022-07-30T18:36:02.621Z,188
2022-07-30T18:36:42.766Z,188
2022-07-30T18:37:23.615Z,180
2022-07-30T18:38:04.390Z,180
2022-07-30T18:38:44.957Z,176
2022-07-30T18:43:30.353Z,144
2022-07-30T18:44:11.596Z,140
2022-07-30T18:44:52.504Z,136
2022-07-30T18:45:37.181Z,128
2022-07-30T18:46:17.044Z,124
2022-07-30T18:50:44.600Z,88
2022-07-30T18:54:06.496Z,64
2022-07-30T18:59:23.222Z,48
2022-07-30T19:00:31.032Z,48
2022-07-30T19:01:13.391Z,48
2022-07-30T19:10:00.480Z,36
2022-07-30T19:10:43.640Z,32
2022-07-30T19:11:26.519Z,32
2022-07-30T19:12:16.037Z,28
2022-07-30T19:17:51.654Z,20
2022-07-30T19:18:41.132Z,20
2022-07-30T19:19:29.567Z,20
2022-07-30T19:24:18.437Z,12
2022-07-30T19:24:59.504Z,12
2022-07-30T19:25:41.639Z,8
2022-07-30T19:26:30.639Z,12
2022-07-30T19:28:04.811Z,8
2022-07-30T19:28:43.845Z,8
2022-07-30T19:30:12.777Z,8
2022-07-30T19:30:53.471Z,8
2022-07-30T19:32:24.769Z,4
2022-07-30T19:33:09.158Z,8
2022-07-30T19:33:54.356Z,4
2022-07-30T19:38:48.127Z,4
2022-07-30T19:39:38.220Z,4
2022-07-30T19:40:27.730Z,0
2022-07-30T19:41:16.583Z,0
2022-07-30T19:42:08.234Z,0
2022-07-30T19:42:58.841Z,0
2022-07-30T19:43:55.785Z,0
2022-07-30T19:44:40.621Z,0
2022-07-30T19:45:46.987Z,0
2022-07-30T19:46:20.498Z,0
2022-07-30T19:47:09.086Z,0
2022-07-30T19:47:57.518Z,0
2022-07-30T19:48:46.502Z,0
2022-07-30T19:49:37.109Z,0
2022-07-30T19:50:27.443Z,0
2022-07-30T19:51:20.380Z,0
2022-07-30T19:52:07.167Z,0
2022-07-30T19:52:55.903Z,0
2022-07-30T19:53:45.063Z,0
2022-07-30T19:54:34.398Z,0
2022-07-30T19:55:31.260Z,0
2022-07-30T19:56:13.300Z,0
2022-07-30T19:57:03.803Z,0
2022-07-30T19:57:54.382Z,0
2022-07-30T19:58:43.637Z,0
2022-07-30T19:59:43.794Z,0
2022-07-30T20:00:28.001Z,0
2022-07-30T20:09:44.470Z,0
2022-07-30T20:10:32.977Z,0
2022-07-30T20:11:34.988Z,0
2022-07-30T20:12:11.098Z,0
2022-07-30T20:13:01.479Z,0
2022-07-30T20:13:53.259Z,0
2022-07-30T20:14:43.403Z,0
2022-07-30T20:15:34.536Z,0
2022-07-30T20:16:24.155Z,0
2022-07-30T20:17:14.487Z,0
2022-07-30T20:18:03.601Z,0
2022-07-30T20:18:52.228Z,0
2022-07-30T20:19:48.146Z,0
2022-07-30T20:20:40.751Z,0
2022-07-30T20:23:16.768Z,0